Main page
METAR-TAF:

METAR-TAF

Airports :

Tiree Airport

Tiree, Scotland

latitude: 56-30N, longitude: 006-53W, elevation: 12 m

Current weather observation

The report was made 42 minutes ago, at 19:20 UTC
Wind 14 kt from the Northeast, varying between North and East/Northeast
Temperature 5°C
Humidity 65%
Pressure 1045 hPa
Visibility 10 km or more

METAR: EGPU 281920Z AUTO 04014KT 010V070 9999 NCD 05/M01 Q1045

Time: 20:02 (20:02 UTC)

Forecast

The report was made 6 hours and 12 minutes ago, at 13:50 UTC
Forecast valid from 28 at 15 UTC to 28 at 18 UTC
Wind 19 kt from the North/Northeast
Visibility 10 km or more
Few clouds at a height of 3500 ft
Temporary
from 28 at 15 UTC to 28 at 18 UTC
Wind 22 kt from the Northeast with gusts up to 32 kt

TAF: EGPU 281350Z 2815/2818 03019KT 9999 FEW035 TEMPO 2815/2818 04022G32KT

Weather observations and forecasts of more than 4000 airports (METAR and TAF reports).

The available stations are represented by yellow and red dots on the map.

Hover mouse over dot to see the name of the station.

Then click to see weather observations and forecasts.

To change the map : click on the green buttons with a black cross to zoom in, on the green button with a dash to zoom out, or on the green arrows for adjacent maps.


METAR-TAF: